sensor_id;sensor_type;location;lat;lon;timestamp;P1;durP1;ratioP1;P2;durP2;ratioP2
50495;SDS011;38806;51.554;5.704;2024-03-22T00:00:49;56.90;;;28.95;;
50495;SDS011;38806;51.554;5.704;2024-03-22T00:02:49;54.87;;;28.80;;
50495;SDS011;38806;51.554;5.704;2024-03-22T00:04:49;60.97;;;29.73;;
50495;SDS011;38806;51.554;5.704;2024-03-22T00:06:49;56.63;;;29.67;;
50495;SDS011;38806;51.554;5.704;2024-03-22T00:08:50;55.83;;;30.00;;
50495;SDS011;38806;51.554;5.704;2024-03-22T00:10:50;63.50;;;30.77;;
50495;SDS011;38806;51.554;5.704;2024-03-22T00:12:50;57.03;;;29.27;;
50495;SDS011;38806;51.554;5.704;2024-03-22T00:14:50;54.35;;;28.63;;
50495;SDS011;38806;51.554;5.704;2024-03-22T00:16:54;61.30;;;28.65;;
50495;SDS011;38806;51.554;5.704;2024-03-22T00:18:54;55.03;;;30.30;;
50495;SDS011;38806;51.554;5.704;2024-03-22T00:20:54;54.50;;;28.25;;
50495;SDS011;38806;51.554;5.704;2024-03-22T00:22:55;58.67;;;29.30;;
50495;SDS011;38806;51.554;5.704;2024-03-22T00:24:55;51.45;;;27.60;;
50495;SDS011;38806;51.554;5.704;2024-03-22T00:26:56;59.53;;;30.92;;
50495;SDS011;38806;51.554;5.704;2024-03-22T00:28:56;55.90;;;28.88;;
50495;SDS011;38806;51.554;5.704;2024-03-22T00:30:58;58.85;;;30.52;;
50495;SDS011;38806;51.554;5.704;2024-03-22T00:32:58;59.40;;;30.65;;
50495;SDS011;38806;51.554;5.704;2024-03-22T00:34:58;60.25;;;29.50;;
50495;SDS011;38806;51.554;5.704;2024-03-22T00:36:58;54.10;;;28.90;;
50495;SDS011;38806;51.554;5.704;2024-03-22T00:38:59;66.82;;;30.20;;
50495;SDS011;38806;51.554;5.704;2024-03-22T00:40:59;64.55;;;32.78;;
50495;SDS011;38806;51.554;5.704;2024-03-22T00:42:59;63.25;;;32.25;;
50495;SDS011;38806;51.554;5.704;2024-03-22T00:44:59;59.85;;;31.05;;
50495;SDS011;38806;51.554;5.704;2024-03-22T00:46:59;72.70;;;31.97;;
50495;SDS011;38806;51.554;5.704;2024-03-22T00:49:02;56.83;;;30.25;;
50495;SDS011;38806;51.554;5.704;2024-03-22T00:51:02;56.72;;;28.27;;
50495;SDS011;38806;51.554;5.704;2024-03-22T00:53:03;55.67;;;29.95;;
50495;SDS011;38806;51.554;5.704;2024-03-22T00:55:04;66.68;;;29.58;;
50495;SDS011;38806;51.554;5.704;2024-03-22T00:57:04;56.75;;;32.85;;
50495;SDS011;38806;51.554;5.704;2024-03-22T00:59:04;57.05;;;31.73;;
50495;SDS011;38806;51.554;5.704;2024-03-22T01:01:04;58.55;;;31.60;;
50495;SDS011;38806;51.554;5.704;2024-03-22T01:03:05;56.72;;;30.88;;
50495;SDS011;38806;51.554;5.704;2024-03-22T01:05:05;57.72;;;31.25;;
50495;SDS011;38806;51.554;5.704;2024-03-22T01:07:06;57.05;;;28.05;;
50495;SDS011;38806;51.554;5.704;2024-03-22T01:09:06;53.47;;;28.17;;
50495;SDS011;38806;51.554;5.704;2024-03-22T01:11:10;64.45;;;29.88;;
50495;SDS011;38806;51.554;5.704;2024-03-22T01:13:10;66.30;;;32.00;;
50495;SDS011;38806;51.554;5.704;2024-03-22T01:15:10;55.42;;;31.75;;
50495;SDS011;38806;51.554;5.704;2024-03-22T01:17:11;68.83;;;34.63;;
50495;SDS011;38806;51.554;5.704;2024-03-22T01:19:11;60.17;;;31.73;;
50495;SDS011;38806;51.554;5.704;2024-03-22T01:21:11;61.83;;;30.38;;
50495;SDS011;38806;51.554;5.704;2024-03-22T01:23:14;54.22;;;29.88;;
50495;SDS011;38806;51.554;5.704;2024-03-22T01:25:14;61.20;;;32.08;;
50495;SDS011;38806;51.554;5.704;2024-03-22T01:27:15;56.97;;;30.05;;
50495;SDS011;38806;51.554;5.704;2024-03-22T01:29:15;60.53;;;34.15;;
50495;SDS011;38806;51.554;5.704;2024-03-22T01:31:15;63.22;;;29.58;;
50495;SDS011;38806;51.554;5.704;2024-03-22T01:33:16;55.72;;;30.42;;
50495;SDS011;38806;51.554;5.704;2024-03-22T01:35:16;56.83;;;29.67;;
50495;SDS011;38806;51.554;5.704;2024-03-22T01:37:16;59.08;;;32.72;;
50495;SDS011;38806;51.554;5.704;2024-03-22T01:39:16;63.67;;;32.45;;
50495;SDS011;38806;51.554;5.704;2024-03-22T01:41:17;60.50;;;31.15;;
50495;SDS011;38806;51.554;5.704;2024-03-22T01:43:17;58.15;;;31.25;;
50495;SDS011;38806;51.554;5.704;2024-03-22T01:45:18;54.42;;;29.90;;
50495;SDS011;38806;51.554;5.704;2024-03-22T01:47:18;64.43;;;34.67;;
50495;SDS011;38806;51.554;5.704;2024-03-22T01:49:18;64.70;;;32.88;;
50495;SDS011;38806;51.554;5.704;2024-03-22T01:51:19;57.55;;;31.35;;
50495;SDS011;38806;51.554;5.704;2024-03-22T01:53:19;62.20;;;33.13;;
50495;SDS011;38806;51.554;5.704;2024-03-22T01:55:19;59.30;;;31.27;;
50495;SDS011;38806;51.554;5.704;2024-03-22T01:57:19;54.40;;;29.75;;
50495;SDS011;38806;51.554;5.704;2024-03-22T01:59:20;62.10;;;31.58;;
50495;SDS011;38806;51.554;5.704;2024-03-22T02:01:21;54.45;;;32.20;;
50495;SDS011;38806;51.554;5.704;2024-03-22T02:03:21;57.35;;;31.38;;
50495;SDS011;38806;51.554;5.704;2024-03-22T02:05:21;61.58;;;32.10;;
50495;SDS011;38806;51.554;5.704;2024-03-22T02:07:24;58.65;;;32.22;;
50495;SDS011;38806;51.554;5.704;2024-03-22T02:09:24;61.13;;;32.10;;
50495;SDS011;38806;51.554;5.704;2024-03-22T02:11:25;59.75;;;28.60;;
50495;SDS011;38806;51.554;5.704;2024-03-22T02:13:25;50.40;;;29.85;;
50495;SDS011;38806;51.554;5.704;2024-03-22T02:15:25;58.78;;;34.65;;
50495;SDS011;38806;51.554;5.704;2024-03-22T02:17:26;52.33;;;29.17;;
50495;SDS011;38806;51.554;5.704;2024-03-22T02:19:26;56.58;;;29.48;;
50495;SDS011;38806;51.554;5.704;2024-03-22T02:21:26;52.80;;;29.38;;
50495;SDS011;38806;51.554;5.704;2024-03-22T02:23:32;53.73;;;28.43;;
50495;SDS011;38806;51.554;5.704;2024-03-22T02:25:33;49.60;;;27.02;;
50495;SDS011;38806;51.554;5.704;2024-03-22T02:27:34;55.22;;;31.67;;
50495;SDS011;38806;51.554;5.704;2024-03-22T02:29:34;54.00;;;32.88;;
50495;SDS011;38806;51.554;5.704;2024-03-22T02:31:34;57.00;;;28.90;;
50495;SDS011;38806;51.554;5.704;2024-03-22T02:33:34;60.40;;;31.65;;
50495;SDS011;38806;51.554;5.704;2024-03-22T02:35:35;52.60;;;30.58;;
50495;SDS011;38806;51.554;5.704;2024-03-22T02:37:35;56.03;;;27.65;;
50495;SDS011;38806;51.554;5.704;2024-03-22T02:39:35;60.70;;;30.77;;
50495;SDS011;38806;51.554;5.704;2024-03-22T02:41:35;56.33;;;31.25;;
50495;SDS011;38806;51.554;5.704;2024-03-22T02:43:35;57.75;;;29.85;;
50495;SDS011;38806;51.554;5.704;2024-03-22T02:45:36;55.63;;;30.65;;
50495;SDS011;38806;51.554;5.704;2024-03-22T02:47:36;49.20;;;29.55;;
50495;SDS011;38806;51.554;5.704;2024-03-22T02:49:37;54.42;;;27.27;;
50495;SDS011;38806;51.554;5.704;2024-03-22T02:51:37;53.40;;;28.05;;
50495;SDS011;38806;51.554;5.704;2024-03-22T02:53:37;54.38;;;28.75;;
50495;SDS011;38806;51.554;5.704;2024-03-22T02:55:38;52.20;;;28.37;;
50495;SDS011;38806;51.554;5.704;2024-03-22T02:57:39;58.70;;;30.40;;
50495;SDS011;38806;51.554;5.704;2024-03-22T02:59:39;48.35;;;28.85;;
50495;SDS011;38806;51.554;5.704;2024-03-22T03:01:39;48.97;;;26.20;;
50495;SDS011;38806;51.554;5.704;2024-03-22T03:03:39;47.60;;;26.15;;
50495;SDS011;38806;51.554;5.704;2024-03-22T03:05:39;55.30;;;26.95;;
50495;SDS011;38806;51.554;5.704;2024-03-22T03:07:41;46.88;;;26.83;;
50495;SDS011;38806;51.554;5.704;2024-03-22T03:09:41;48.67;;;29.02;;
50495;SDS011;38806;51.554;5.704;2024-03-22T03:11:41;44.55;;;24.50;;
50495;SDS011;38806;51.554;5.704;2024-03-22T03:13:42;46.90;;;25.08;;
50495;SDS011;38806;51.554;5.704;2024-03-22T03:15:42;46.03;;;25.07;;
50495;SDS011;38806;51.554;5.704;2024-03-22T03:17:42;41.63;;;23.37;;
50495;SDS011;38806;51.554;5.704;2024-03-22T03:19:42;44.65;;;24.08;;
50495;SDS011;38806;51.554;5.704;2024-03-22T03:21:42;46.63;;;26.15;;
50495;SDS011;38806;51.554;5.704;2024-03-22T03:23:42;47.28;;;24.00;;
50495;SDS011;38806;51.554;5.704;2024-03-22T03:25:43;41.07;;;24.67;;
50495;SDS011;38806;51.554;5.704;2024-03-22T03:27:43;44.90;;;26.33;;
50495;SDS011;38806;51.554;5.704;2024-03-22T03:29:43;42.25;;;23.35;;
50495;SDS011;38806;51.554;5.704;2024-03-22T03:31:43;48.95;;;25.35;;
50495;SDS011;38806;51.554;5.704;2024-03-22T03:33:43;50.00;;;25.17;;
50495;SDS011;38806;51.554;5.704;2024-03-22T03:35:46;54.47;;;25.50;;
50495;SDS011;38806;51.554;5.704;2024-03-22T03:37:46;49.45;;;25.92;;
50495;SDS011;38806;51.554;5.704;2024-03-22T03:39:47;49.72;;;24.95;;
50495;SDS011;38806;51.554;5.704;2024-03-22T03:41:47;41.33;;;22.83;;
50495;SDS011;38806;51.554;5.704;2024-03-22T03:43:47;40.27;;;25.50;;
50495;SDS011;38806;51.554;5.704;2024-03-22T03:45:47;44.33;;;23.45;;
50495;SDS011;38806;51.554;5.704;2024-03-22T03:47:47;44.77;;;24.50;;
50495;SDS011;38806;51.554;5.704;2024-03-22T03:49:48;37.85;;;21.77;;
50495;SDS011;38806;51.554;5.704;2024-03-22T03:51:48;42.67;;;23.55;;
50495;SDS011;38806;51.554;5.704;2024-03-22T03:53:48;40.97;;;22.05;;
50495;SDS011;38806;51.554;5.704;2024-03-22T03:55:48;45.70;;;23.27;;
50495;SDS011;38806;51.554;5.704;2024-03-22T03:57:52;49.37;;;26.03;;
50495;SDS011;38806;51.554;5.704;2024-03-22T03:59:52;50.28;;;25.17;;
50495;SDS011;38806;51.554;5.704;2024-03-22T04:01:52;42.17;;;22.77;;
50495;SDS011;38806;51.554;5.704;2024-03-22T04:03:52;47.13;;;24.83;;
50495;SDS011;38806;51.554;5.704;2024-03-22T04:05:56;38.92;;;23.70;;
50495;SDS011;38806;51.554;5.704;2024-03-22T04:07:56;39.28;;;23.27;;
50495;SDS011;38806;51.554;5.704;2024-03-22T04:09:56;39.35;;;22.95;;
50495;SDS011;38806;51.554;5.704;2024-03-22T04:11:57;39.30;;;22.88;;
50495;SDS011;38806;51.554;5.704;2024-03-22T04:13:58;40.40;;;22.10;;
50495;SDS011;38806;51.554;5.704;2024-03-22T04:15:59;40.75;;;25.20;;
50495;SDS011;38806;51.554;5.704;2024-03-22T04:17:59;45.97;;;24.52;;
50495;SDS011;38806;51.554;5.704;2024-03-22T04:19:59;43.03;;;22.50;;
50495;SDS011;38806;51.554;5.704;2024-03-22T04:21:59;47.17;;;24.98;;
50495;SDS011;38806;51.554;5.704;2024-03-22T04:23:59;46.50;;;24.97;;
50495;SDS011;38806;51.554;5.704;2024-03-22T04:26:00;43.58;;;24.35;;
50495;SDS011;38806;51.554;5.704;2024-03-22T04:28:00;40.90;;;25.15;;
50495;SDS011;38806;51.554;5.704;2024-03-22T04:30:00;42.45;;;22.95;;
50495;SDS011;38806;51.554;5.704;2024-03-22T04:32:01;38.85;;;24.83;;
50495;SDS011;38806;51.554;5.704;2024-03-22T04:34:01;49.17;;;25.33;;
50495;SDS011;38806;51.554;5.704;2024-03-22T04:36:02;43.95;;;24.60;;
50495;SDS011;38806;51.554;5.704;2024-03-22T04:38:02;37.63;;;23.80;;
50495;SDS011;38806;51.554;5.704;2024-03-22T04:40:03;38.92;;;23.25;;
50495;SDS011;38806;51.554;5.704;2024-03-22T04:42:03;53.70;;;25.00;;
50495;SDS011;38806;51.554;5.704;2024-03-22T04:44:04;41.92;;;24.42;;
50495;SDS011;38806;51.554;5.704;2024-03-22T04:46:04;39.53;;;20.85;;
50495;SDS011;38806;51.554;5.704;2024-03-22T04:48:04;42.05;;;21.75;;
50495;SDS011;38806;51.554;5.704;2024-03-22T04:50:05;45.10;;;24.63;;
50495;SDS011;38806;51.554;5.704;2024-03-22T04:52:05;41.88;;;23.65;;
50495;SDS011;38806;51.554;5.704;2024-03-22T04:54:05;43.60;;;24.75;;
50495;SDS011;38806;51.554;5.704;2024-03-22T04:56:05;36.87;;;21.30;;
50495;SDS011;38806;51.554;5.704;2024-03-22T04:58:07;44.58;;;23.70;;
50495;SDS011;38806;51.554;5.704;2024-03-22T05:00:07;39.90;;;25.23;;
50495;SDS011;38806;51.554;5.704;2024-03-22T05:02:09;40.50;;;23.30;;
50495;SDS011;38806;51.554;5.704;2024-03-22T05:04:09;43.67;;;24.23;;
50495;SDS011;38806;51.554;5.704;2024-03-22T05:06:09;39.83;;;22.77;;
50495;SDS011;38806;51.554;5.704;2024-03-22T05:08:10;33.58;;;21.75;;
50495;SDS011;38806;51.554;5.704;2024-03-22T05:10:11;42.67;;;23.45;;
50495;SDS011;38806;51.554;5.704;2024-03-22T05:12:11;40.90;;;23.60;;
50495;SDS011;38806;51.554;5.704;2024-03-22T05:14:11;44.85;;;24.02;;
50495;SDS011;38806;51.554;5.704;2024-03-22T05:16:11;39.37;;;22.67;;
50495;SDS011;38806;51.554;5.704;2024-03-22T05:18:12;36.38;;;22.20;;
50495;SDS011;38806;51.554;5.704;2024-03-22T05:20:12;38.17;;;21.80;;
50495;SDS011;38806;51.554;5.704;2024-03-22T05:22:13;42.05;;;22.77;;
50495;SDS011;38806;51.554;5.704;2024-03-22T05:24:13;38.92;;;22.45;;
50495;SDS011;38806;51.554;5.704;2024-03-22T05:26:13;37.23;;;22.37;;
50495;SDS011;38806;51.554;5.704;2024-03-22T05:28:13;38.13;;;21.83;;
50495;SDS011;38806;51.554;5.704;2024-03-22T05:30:14;40.40;;;24.05;;
50495;SDS011;38806;51.554;5.704;2024-03-22T05:32:14;40.40;;;23.70;;
50495;SDS011;38806;51.554;5.704;2024-03-22T05:34:14;44.90;;;23.73;;
50495;SDS011;38806;51.554;5.704;2024-03-22T05:36:15;37.58;;;22.50;;
50495;SDS011;38806;51.554;5.704;2024-03-22T05:38:15;40.97;;;23.05;;
50495;SDS011;38806;51.554;5.704;2024-03-22T05:40:16;38.17;;;21.87;;
50495;SDS011;38806;51.554;5.704;2024-03-22T05:42:16;41.42;;;22.85;;
50495;SDS011;38806;51.554;5.704;2024-03-22T05:44:16;45.90;;;23.25;;
50495;SDS011;38806;51.554;5.704;2024-03-22T05:46:16;40.22;;;22.65;;
50495;SDS011;38806;51.554;5.704;2024-03-22T05:48:17;42.15;;;25.63;;
50495;SDS011;38806;51.554;5.704;2024-03-22T05:50:17;42.50;;;22.07;;
50495;SDS011;38806;51.554;5.704;2024-03-22T05:52:17;40.15;;;21.13;;
50495;SDS011;38806;51.554;5.704;2024-03-22T05:54:17;43.55;;;22.48;;
50495;SDS011;38806;51.554;5.704;2024-03-22T05:56:18;38.03;;;22.08;;
50495;SDS011;38806;51.554;5.704;2024-03-22T05:58:18;37.13;;;22.33;;
50495;SDS011;38806;51.554;5.704;2024-03-22T06:00:19;38.33;;;22.00;;
50495;SDS011;38806;51.554;5.704;2024-03-22T06:02:20;43.15;;;22.40;;
50495;SDS011;38806;51.554;5.704;2024-03-22T06:04:20;42.53;;;24.98;;
50495;SDS011;38806;51.554;5.704;2024-03-22T06:06:20;33.55;;;19.83;;
50495;SDS011;38806;51.554;5.704;2024-03-22T06:08:25;31.80;;;20.85;;
50495;SDS011;38806;51.554;5.704;2024-03-22T06:10:25;35.15;;;20.98;;
50495;SDS011;38806;51.554;5.704;2024-03-22T06:12:26;39.58;;;21.38;;
50495;SDS011;38806;51.554;5.704;2024-03-22T06:14:26;34.28;;;21.30;;
50495;SDS011;38806;51.554;5.704;2024-03-22T06:16:26;36.30;;;22.13;;
50495;SDS011;38806;51.554;5.704;2024-03-22T06:18:26;35.05;;;18.88;;
50495;SDS011;38806;51.554;5.704;2024-03-22T06:20:26;40.92;;;20.40;;
50495;SDS011;38806;51.554;5.704;2024-03-22T06:22:27;34.47;;;19.17;;
50495;SDS011;38806;51.554;5.704;2024-03-22T06:24:27;39.80;;;20.15;;
50495;SDS011;38806;51.554;5.704;2024-03-22T06:26:27;33.50;;;19.90;;
50495;SDS011;38806;51.554;5.704;2024-03-22T06:28:28;33.28;;;18.23;;
50495;SDS011;38806;51.554;5.704;2024-03-22T06:30:28;38.38;;;20.23;;
50495;SDS011;38806;51.554;5.704;2024-03-22T06:32:29;30.45;;;18.90;;
50495;SDS011;38806;51.554;5.704;2024-03-22T06:34:29;32.63;;;17.38;;
50495;SDS011;38806;51.554;5.704;2024-03-22T06:36:31;41.33;;;20.70;;
50495;SDS011;38806;51.554;5.704;2024-03-22T06:38:32;30.75;;;19.17;;
50495;SDS011;38806;51.554;5.704;2024-03-22T06:40:32;36.28;;;19.23;;
50495;SDS011;38806;51.554;5.704;2024-03-22T06:42:32;31.77;;;17.73;;
50495;SDS011;38806;51.554;5.704;2024-03-22T06:44:32;27.45;;;17.13;;
50495;SDS011;38806;51.554;5.704;2024-03-22T06:46:33;30.73;;;17.80;;
50495;SDS011;38806;51.554;5.704;2024-03-22T06:48:33;30.55;;;17.13;;
50495;SDS011;38806;51.554;5.704;2024-03-22T06:50:33;29.60;;;18.33;;
50495;SDS011;38806;51.554;5.704;2024-03-22T06:52:33;35.50;;;18.47;;
50495;SDS011;38806;51.554;5.704;2024-03-22T06:54:33;30.63;;;17.00;;
50495;SDS011;38806;51.554;5.704;2024-03-22T06:56:33;35.35;;;19.17;;
50495;SDS011;38806;51.554;5.704;2024-03-22T06:58:35;29.05;;;17.20;;
50495;SDS011;38806;51.554;5.704;2024-03-22T07:00:35;28.60;;;16.20;;
50495;SDS011;38806;51.554;5.704;2024-03-22T07:02:35;33.08;;;17.48;;
50495;SDS011;38806;51.554;5.704;2024-03-22T07:04:36;28.65;;;17.70;;
50495;SDS011;38806;51.554;5.704;2024-03-22T07:06:36;29.80;;;16.98;;
50495;SDS011;38806;51.554;5.704;2024-03-22T07:08:36;32.60;;;16.70;;
50495;SDS011;38806;51.554;5.704;2024-03-22T07:10:38;28.23;;;17.57;;
50495;SDS011;38806;51.554;5.704;2024-03-22T07:12:39;32.85;;;19.90;;
50495;SDS011;38806;51.554;5.704;2024-03-22T07:14:39;27.10;;;15.10;;
50495;SDS011;38806;51.554;5.704;2024-03-22T07:16:40;30.70;;;17.20;;
50495;SDS011;38806;51.554;5.704;2024-03-22T07:18:40;33.70;;;15.65;;
50495;SDS011;38806;51.554;5.704;2024-03-22T07:20:45;25.00;;;16.52;;
50495;SDS011;38806;51.554;5.704;2024-03-22T07:22:45;29.58;;;16.73;;
50495;SDS011;38806;51.554;5.704;2024-03-22T07:24:45;23.13;;;14.15;;
50495;SDS011;38806;51.554;5.704;2024-03-22T07:26:46;27.45;;;15.25;;
50495;SDS011;38806;51.554;5.704;2024-03-22T07:28:46;31.13;;;16.75;;
50495;SDS011;38806;51.554;5.704;2024-03-22T07:30:46;28.45;;;16.35;;
50495;SDS011;38806;51.554;5.704;2024-03-22T07:32:47;25.95;;;16.40;;
50495;SDS011;38806;51.554;5.704;2024-03-22T07:34:47;29.90;;;15.07;;
50495;SDS011;38806;51.554;5.704;2024-03-22T07:36:47;23.02;;;14.60;;
50495;SDS011;38806;51.554;5.704;2024-03-22T07:38:48;25.75;;;14.82;;
50495;SDS011;38806;51.554;5.704;2024-03-22T07:40:51;26.40;;;15.07;;
50495;SDS011;38806;51.554;5.704;2024-03-22T07:42:51;22.07;;;12.63;;
50495;SDS011;38806;51.554;5.704;2024-03-22T07:44:52;19.92;;;13.32;;
50495;SDS011;38806;51.554;5.704;2024-03-22T07:46:52;22.10;;;13.30;;
50495;SDS011;38806;51.554;5.704;2024-03-22T07:48:52;22.92;;;13.35;;
50495;SDS011;38806;51.554;5.704;2024-03-22T07:50:59;29.05;;;14.88;;
50495;SDS011;38806;51.554;5.704;2024-03-22T07:52:59;25.02;;;14.50;;
50495;SDS011;38806;51.554;5.704;2024-03-22T07:55:00;25.52;;;13.88;;
50495;SDS011;38806;51.554;5.704;2024-03-22T07:57:02;24.23;;;14.02;;
50495;SDS011;38806;51.554;5.704;2024-03-22T07:59:03;23.58;;;14.02;;
50495;SDS011;38806;51.554;5.704;2024-03-22T08:01:04;20.88;;;14.23;;
50495;SDS011;38806;51.554;5.704;2024-03-22T08:03:05;23.90;;;14.25;;
50495;SDS011;38806;51.554;5.704;2024-03-22T08:05:06;21.15;;;12.63;;
50495;SDS011;38806;51.554;5.704;2024-03-22T08:07:06;25.42;;;15.00;;
50495;SDS011;38806;51.554;5.704;2024-03-22T08:09:06;25.37;;;15.10;;
50495;SDS011;38806;51.554;5.704;2024-03-22T08:11:07;26.58;;;15.93;;
50495;SDS011;38806;51.554;5.704;2024-03-22T08:13:07;22.00;;;14.10;;
50495;SDS011;38806;51.554;5.704;2024-03-22T08:15:08;25.10;;;14.93;;
50495;SDS011;38806;51.554;5.704;2024-03-22T08:17:08;24.55;;;14.43;;
50495;SDS011;38806;51.554;5.704;2024-03-22T08:19:10;24.77;;;13.95;;
50495;SDS011;38806;51.554;5.704;2024-03-22T08:21:11;26.73;;;15.93;;
50495;SDS011;38806;51.554;5.704;2024-03-22T08:23:11;21.30;;;13.50;;
50495;SDS011;38806;51.554;5.704;2024-03-22T08:25:11;23.60;;;13.52;;
50495;SDS011;38806;51.554;5.704;2024-03-22T08:27:12;24.30;;;13.50;;
50495;SDS011;38806;51.554;5.704;2024-03-22T08:29:13;26.85;;;14.73;;
50495;SDS011;38806;51.554;5.704;2024-03-22T08:31:14;18.65;;;12.80;;
50495;SDS011;38806;51.554;5.704;2024-03-22T08:33:15;22.90;;;13.63;;
50495;SDS011;38806;51.554;5.704;2024-03-22T08:35:15;22.35;;;12.85;;
50495;SDS011;38806;51.554;5.704;2024-03-22T08:37:15;23.35;;;14.45;;
50495;SDS011;38806;51.554;5.704;2024-03-22T08:39:15;24.77;;;15.03;;
50495;SDS011;38806;51.554;5.704;2024-03-22T08:41:15;22.50;;;12.32;;
50495;SDS011;38806;51.554;5.704;2024-03-22T08:43:16;22.63;;;14.87;;
50495;SDS011;38806;51.554;5.704;2024-03-22T08:45:16;23.67;;;13.23;;
50495;SDS011;38806;51.554;5.704;2024-03-22T08:47:16;23.03;;;13.63;;
50495;SDS011;38806;51.554;5.704;2024-03-22T08:49:16;21.55;;;12.73;;
50495;SDS011;38806;51.554;5.704;2024-03-22T08:51:19;22.52;;;12.93;;
50495;SDS011;38806;51.554;5.704;2024-03-22T08:53:19;20.15;;;12.82;;
50495;SDS011;38806;51.554;5.704;2024-03-22T08:55:19;22.48;;;13.38;;
50495;SDS011;38806;51.554;5.704;2024-03-22T08:57:20;25.08;;;13.50;;
50495;SDS011;38806;51.554;5.704;2024-03-22T08:59:20;22.70;;;13.45;;
50495;SDS011;38806;51.554;5.704;2024-03-22T09:01:20;23.27;;;13.83;;
50495;SDS011;38806;51.554;5.704;2024-03-22T09:03:22;18.83;;;13.38;;
50495;SDS011;38806;51.554;5.704;2024-03-22T09:05:22;24.08;;;14.73;;
50495;SDS011;38806;51.554;5.704;2024-03-22T09:07:22;27.73;;;14.90;;
50495;SDS011;38806;51.554;5.704;2024-03-22T09:09:23;24.88;;;15.90;;
50495;SDS011;38806;51.554;5.704;2024-03-22T09:11:24;23.92;;;13.75;;
50495;SDS011;38806;51.554;5.704;2024-03-22T09:13:25;20.85;;;11.40;;
50495;SDS011;38806;51.554;5.704;2024-03-22T09:15:25;22.00;;;12.15;;
50495;SDS011;38806;51.554;5.704;2024-03-22T09:17:25;22.55;;;11.98;;
50495;SDS011;38806;51.554;5.704;2024-03-22T09:19:25;21.33;;;12.93;;
50495;SDS011;38806;51.554;5.704;2024-03-22T09:21:26;20.70;;;12.68;;
50495;SDS011;38806;51.554;5.704;2024-03-22T09:23:26;21.90;;;13.32;;
50495;SDS011;38806;51.554;5.704;2024-03-22T09:25:27;20.30;;;11.23;;
50495;SDS011;38806;51.554;5.704;2024-03-22T09:27:27;23.00;;;12.88;;
50495;SDS011;38806;51.554;5.704;2024-03-22T09:29:27;27.80;;;13.95;;
50495;SDS011;38806;51.554;5.704;2024-03-22T09:31:27;19.60;;;12.40;;
50495;SDS011;38806;51.554;5.704;2024-03-22T09:33:27;18.73;;;11.77;;
50495;SDS011;38806;51.554;5.704;2024-03-22T09:35:28;20.00;;;12.60;;
50495;SDS011;38806;51.554;5.704;2024-03-22T09:37:28;20.30;;;11.63;;
50495;SDS011;38806;51.554;5.704;2024-03-22T09:39:28;21.35;;;11.48;;
50495;SDS011;38806;51.554;5.704;2024-03-22T09:41:31;24.55;;;11.32;;
50495;SDS011;38806;51.554;5.704;2024-03-22T09:43:31;18.38;;;10.98;;
50495;SDS011;38806;51.554;5.704;2024-03-22T09:45:33;18.98;;;11.63;;
50495;SDS011;38806;51.554;5.704;2024-03-22T09:47:33;19.25;;;11.13;;
50495;SDS011;38806;51.554;5.704;2024-03-22T09:49:34;21.52;;;12.10;;
50495;SDS011;38806;51.554;5.704;2024-03-22T09:51:34;21.63;;;11.68;;
50495;SDS011;38806;51.554;5.704;2024-03-22T09:53:34;22.75;;;12.73;;
50495;SDS011;38806;51.554;5.704;2024-03-22T09:55:35;24.10;;;12.60;;
50495;SDS011;38806;51.554;5.704;2024-03-22T09:57:39;16.25;;;10.10;;
50495;SDS011;38806;51.554;5.704;2024-03-22T09:59:39;19.05;;;12.10;;
50495;SDS011;38806;51.554;5.704;2024-03-22T10:01:40;19.98;;;12.88;;
50495;SDS011;38806;51.554;5.704;2024-03-22T10:03:40;18.50;;;11.45;;
50495;SDS011;38806;51.554;5.704;2024-03-22T10:05:40;16.58;;;11.18;;
50495;SDS011;38806;51.554;5.704;2024-03-22T10:07:40;24.47;;;13.60;;
50495;SDS011;38806;51.554;5.704;2024-03-22T10:09:41;20.85;;;13.32;;
50495;SDS011;38806;51.554;5.704;2024-03-22T10:11:42;25.80;;;13.88;;
50495;SDS011;38806;51.554;5.704;2024-03-22T10:13:44;20.15;;;11.13;;
50495;SDS011;38806;51.554;5.704;2024-03-22T10:15:45;20.02;;;11.88;;
50495;SDS011;38806;51.554;5.704;2024-03-22T10:17:46;18.85;;;12.60;;
50495;SDS011;38806;51.554;5.704;2024-03-22T10:19:48;19.95;;;12.82;;
50495;SDS011;38806;51.554;5.704;2024-03-22T10:21:58;17.27;;;11.25;;
50495;SDS011;38806;51.554;5.704;2024-03-22T10:23:59;16.67;;;10.55;;
50495;SDS011;38806;51.554;5.704;2024-03-22T10:25:59;15.87;;;10.87;;
50495;SDS011;38806;51.554;5.704;2024-03-22T10:28:00;19.13;;;12.23;;
50495;SDS011;38806;51.554;5.704;2024-03-22T10:30:00;21.75;;;12.23;;
50495;SDS011;38806;51.554;5.704;2024-03-22T10:32:01;19.90;;;11.75;;
50495;SDS011;38806;51.554;5.704;2024-03-22T10:34:02;19.33;;;12.63;;
50495;SDS011;38806;51.554;5.704;2024-03-22T10:36:05;25.63;;;15.02;;
50495;SDS011;38806;51.554;5.704;2024-03-22T10:38:06;22.88;;;12.20;;
50495;SDS011;38806;51.554;5.704;2024-03-22T10:40:07;22.50;;;13.35;;
50495;SDS011;38806;51.554;5.704;2024-03-22T10:42:07;19.70;;;11.55;;
50495;SDS011;38806;51.554;5.704;2024-03-22T10:44:08;24.30;;;13.52;;
50495;SDS011;38806;51.554;5.704;2024-03-22T10:46:08;18.80;;;12.18;;
50495;SDS011;38806;51.554;5.704;2024-03-22T10:48:09;22.20;;;12.30;;
50495;SDS011;38806;51.554;5.704;2024-03-22T10:50:10;20.88;;;13.02;;
50495;SDS011;38806;51.554;5.704;2024-03-22T10:52:11;27.60;;;14.25;;
50495;SDS011;38806;51.554;5.704;2024-03-22T10:54:13;23.08;;;13.85;;
50495;SDS011;38806;51.554;5.704;2024-03-22T10:56:15;21.67;;;13.48;;
50495;SDS011;38806;51.554;5.704;2024-03-22T10:58:22;27.60;;;13.93;;
50495;SDS011;38806;51.554;5.704;2024-03-22T11:00:27;21.00;;;13.23;;
50495;SDS011;38806;51.554;5.704;2024-03-22T11:02:27;22.38;;;12.93;;
50495;SDS011;38806;51.554;5.704;2024-03-22T11:04:29;20.17;;;12.02;;
50495;SDS011;38806;51.554;5.704;2024-03-22T11:06:30;23.20;;;13.73;;
50495;SDS011;38806;51.554;5.704;2024-03-22T11:08:31;24.45;;;15.07;;
50495;SDS011;38806;51.554;5.704;2024-03-22T11:10:34;24.65;;;15.23;;
50495;SDS011;38806;51.554;5.704;2024-03-22T11:12:37;20.63;;;13.63;;
50495;SDS011;38806;51.554;5.704;2024-03-22T11:14:37;27.25;;;15.75;;
50495;SDS011;38806;51.554;5.704;2024-03-22T11:16:37;25.67;;;15.35;;
50495;SDS011;38806;51.554;5.704;2024-03-22T11:18:37;23.35;;;13.40;;
50495;SDS011;38806;51.554;5.704;2024-03-22T11:20:38;25.55;;;15.27;;
50495;SDS011;38806;51.554;5.704;2024-03-22T11:22:39;22.48;;;14.55;;
50495;SDS011;38806;51.554;5.704;2024-03-22T11:24:39;29.83;;;13.90;;
50495;SDS011;38806;51.554;5.704;2024-03-22T11:26:39;24.58;;;14.10;;
50495;SDS011;38806;51.554;5.704;2024-03-22T11:28:40;28.50;;;13.45;;
50495;SDS011;38806;51.554;5.704;2024-03-22T11:30:40;21.73;;;15.95;;
50495;SDS011;38806;51.554;5.704;2024-03-22T11:32:40;24.98;;;14.93;;
50495;SDS011;38806;51.554;5.704;2024-03-22T11:34:46;23.25;;;15.10;;
50495;SDS011;38806;51.554;5.704;2024-03-22T11:36:47;23.38;;;13.00;;
50495;SDS011;38806;51.554;5.704;2024-03-22T11:38:49;27.15;;;15.57;;
50495;SDS011;38806;51.554;5.704;2024-03-22T11:40:50;21.85;;;13.27;;
50495;SDS011;38806;51.554;5.704;2024-03-22T11:42:50;24.77;;;14.77;;
50495;SDS011;38806;51.554;5.704;2024-03-22T11:44:51;23.52;;;14.60;;